sensor_id;sensor_type;location;lat;lon;timestamp;temperature;humidity
47114;DHT22;32867;51.556;6.832;2023-03-01T00:03:00;3.50;76.80
47114;DHT22;32867;51.556;6.832;2023-03-01T00:08:01;3.50;76.50
47114;DHT22;32867;51.556;6.832;2023-03-01T00:13:01;3.40;77.10
47114;DHT22;32867;51.556;6.832;2023-03-01T00:18:02;3.40;77.10
47114;DHT22;32867;51.556;6.832;2023-03-01T00:23:03;3.30;77.10
47114;DHT22;32867;51.556;6.832;2023-03-01T00:28:04;3.30;77.50
47114;DHT22;32867;51.556;6.832;2023-03-01T00:33:04;3.30;77.40
47114;DHT22;32867;51.556;6.832;2023-03-01T00:38:05;3.20;77.50
47114;DHT22;32867;51.556;6.832;2023-03-01T00:43:06;3.10;77.70
47114;DHT22;32867;51.556;6.832;2023-03-01T00:48:07;3.10;78.20
47114;DHT22;32867;51.556;6.832;2023-03-01T00:53:07;3.10;78.10
47114;DHT22;32867;51.556;6.832;2023-03-01T00:58:08;3.00;78.40
47114;DHT22;32867;51.556;6.832;2023-03-01T01:03:09;2.90;78.90
47114;DHT22;32867;51.556;6.832;2023-03-01T01:08:09;2.90;78.80
47114;DHT22;32867;51.556;6.832;2023-03-01T01:13:10;2.80;79.10
47114;DHT22;32867;51.556;6.832;2023-03-01T01:18:11;2.70;79.60
47114;DHT22;32867;51.556;6.832;2023-03-01T01:23:11;2.70;79.60
47114;DHT22;32867;51.556;6.832;2023-03-01T01:28:12;2.70;79.80
47114;DHT22;32867;51.556;6.832;2023-03-01T01:33:13;2.60;80.10
47114;DHT22;32867;51.556;6.832;2023-03-01T01:38:13;2.60;80.20
47114;DHT22;32867;51.556;6.832;2023-03-01T01:43:29;2.50;80.30
47114;DHT22;32867;51.556;6.832;2023-03-01T01:48:46;2.50;80.30
47114;DHT22;32867;51.556;6.832;2023-03-01T01:53:51;2.40;80.60
47114;DHT22;32867;51.556;6.832;2023-03-01T01:58:53;2.40;80.90
47114;DHT22;32867;51.556;6.832;2023-03-01T02:03:54;2.40;81.10
47114;DHT22;32867;51.556;6.832;2023-03-01T02:08:57;2.30;81.60
47114;DHT22;32867;51.556;6.832;2023-03-01T02:14:00;2.30;81.80
47114;DHT22;32867;51.556;6.832;2023-03-01T02:19:01;2.30;81.90
47114;DHT22;32867;51.556;6.832;2023-03-01T02:24:42;2.30;81.80
47114;DHT22;32867;51.556;6.832;2023-03-01T02:29:46;2.40;82.10
47114;DHT22;32867;51.556;6.832;2023-03-01T02:34:48;2.30;81.80
47114;DHT22;32867;51.556;6.832;2023-03-01T02:39:52;2.30;82.10
47114;DHT22;32867;51.556;6.832;2023-03-01T02:44:54;2.20;81.90
47114;DHT22;32867;51.556;6.832;2023-03-01T02:49:54;2.20;82.30
47114;DHT22;32867;51.556;6.832;2023-03-01T03:00:14;2.00;82.90
47114;DHT22;32867;51.556;6.832;2023-03-01T03:05:25;2.00;83.20
47114;DHT22;32867;51.556;6.832;2023-03-01T03:10:33;2.00;83.50
47114;DHT22;32867;51.556;6.832;2023-03-01T03:15:34;2.00;83.70
47114;DHT22;32867;51.556;6.832;2023-03-01T03:20:40;2.00;83.60
47114;DHT22;32867;51.556;6.832;2023-03-01T03:25:42;1.90;83.60
47114;DHT22;32867;51.556;6.832;2023-03-01T03:30:43;1.90;83.70
47114;DHT22;32867;51.556;6.832;2023-03-01T03:35:47;1.90;83.60
47114;DHT22;32867;51.556;6.832;2023-03-01T03:40:49;1.70;83.80
47114;DHT22;32867;51.556;6.832;2023-03-01T03:45:51;1.70;84.50
47114;DHT22;32867;51.556;6.832;2023-03-01T03:50:54;1.60;84.60
47114;DHT22;32867;51.556;6.832;2023-03-01T03:55:55;1.60;84.80
47114;DHT22;32867;51.556;6.832;2023-03-01T04:00:56;1.50;85.10
47114;DHT22;32867;51.556;6.832;2023-03-01T04:06:00;1.50;85.40
47114;DHT22;32867;51.556;6.832;2023-03-01T04:11:03;1.50;85.40
47114;DHT22;32867;51.556;6.832;2023-03-01T04:16:24;1.50;85.60
47114;DHT22;32867;51.556;6.832;2023-03-01T04:21:25;1.40;86.00
47114;DHT22;32867;51.556;6.832;2023-03-01T04:26:25;1.40;85.90
47114;DHT22;32867;51.556;6.832;2023-03-01T04:31:27;1.30;86.40
47114;DHT22;32867;51.556;6.832;2023-03-01T04:36:29;1.30;86.50
47114;DHT22;32867;51.556;6.832;2023-03-01T04:41:30;1.30;86.50
47114;DHT22;32867;51.556;6.832;2023-03-01T04:46:31;1.20;86.70
47114;DHT22;32867;51.556;6.832;2023-03-01T04:51:31;1.20;87.10
47114;DHT22;32867;51.556;6.832;2023-03-01T04:56:35;1.20;86.90
47114;DHT22;32867;51.556;6.832;2023-03-01T05:01:35;1.20;87.30
47114;DHT22;32867;51.556;6.832;2023-03-01T05:06:37;1.10;87.40
47114;DHT22;32867;51.556;6.832;2023-03-01T05:11:38;1.10;87.50
47114;DHT22;32867;51.556;6.832;2023-03-01T05:16:38;1.10;88.20
47114;DHT22;32867;51.556;6.832;2023-03-01T05:21:39;1.00;88.00
47114;DHT22;32867;51.556;6.832;2023-03-01T05:27:01;1.00;87.90
47114;DHT22;32867;51.556;6.832;2023-03-01T05:32:02;1.00;87.90
47114;DHT22;32867;51.556;6.832;2023-03-01T05:37:03;0.90;88.30
47114;DHT22;32867;51.556;6.832;2023-03-01T05:42:03;0.90;88.10
47114;DHT22;32867;51.556;6.832;2023-03-01T05:47:04;0.90;88.80
47114;DHT22;32867;51.556;6.832;2023-03-01T05:52:05;0.90;88.60
47114;DHT22;32867;51.556;6.832;2023-03-01T05:57:06;0.80;89.10
47114;DHT22;32867;51.556;6.832;2023-03-01T06:02:06;0.80;89.10
47114;DHT22;32867;51.556;6.832;2023-03-01T06:07:07;0.80;89.50
47114;DHT22;32867;51.556;6.832;2023-03-01T06:12:08;0.80;90.20
47114;DHT22;32867;51.556;6.832;2023-03-01T06:17:08;0.90;89.80
47114;DHT22;32867;51.556;6.832;2023-03-01T06:22:09;0.90;89.90
47114;DHT22;32867;51.556;6.832;2023-03-01T06:27:09;0.80;90.10
47114;DHT22;32867;51.556;6.832;2023-03-01T06:32:10;0.80;90.20
47114;DHT22;32867;51.556;6.832;2023-03-01T06:37:11;0.90;90.10
47114;DHT22;32867;51.556;6.832;2023-03-01T06:42:11;0.90;90.10
47114;DHT22;32867;51.556;6.832;2023-03-01T06:47:12;0.90;90.20
47114;DHT22;32867;51.556;6.832;2023-03-01T06:52:13;1.00;90.20
47114;DHT22;32867;51.556;6.832;2023-03-01T06:57:13;1.00;90.30
47114;DHT22;32867;51.556;6.832;2023-03-01T07:02:14;1.10;90.10
47114;DHT22;32867;51.556;6.832;2023-03-01T07:07:16;1.10;90.10
47114;DHT22;32867;51.556;6.832;2023-03-01T07:12:18;1.20;90.10
47114;DHT22;32867;51.556;6.832;2023-03-01T07:17:19;1.30;90.10
47114;DHT22;32867;51.556;6.832;2023-03-01T07:22:19;1.40;90.00
47114;DHT22;32867;51.556;6.832;2023-03-01T07:27:20;1.50;90.10
47114;DHT22;32867;51.556;6.832;2023-03-01T07:32:20;1.60;90.10
47114;DHT22;32867;51.556;6.832;2023-03-01T07:37:21;1.70;90.00
47114;DHT22;32867;51.556;6.832;2023-03-01T07:42:22;1.80;89.90
47114;DHT22;32867;51.556;6.832;2023-03-01T07:47:22;1.90;89.90
47114;DHT22;32867;51.556;6.832;2023-03-01T07:52:23;2.00;89.40
47114;DHT22;32867;51.556;6.832;2023-03-01T07:57:24;2.20;89.00
47114;DHT22;32867;51.556;6.832;2023-03-01T08:02:25;2.40;88.80
47114;DHT22;32867;51.556;6.832;2023-03-01T08:07:26;2.60;88.60
47114;DHT22;32867;51.556;6.832;2023-03-01T08:12:26;2.90;88.70
47114;DHT22;32867;51.556;6.832;2023-03-01T08:17:28;4.00;88.30
47114;DHT22;32867;51.556;6.832;2023-03-01T08:22:29;4.90;84.60
47114;DHT22;32867;51.556;6.832;2023-03-01T08:27:29;6.00;83.30
47114;DHT22;32867;51.556;6.832;2023-03-01T08:32:35;7.40;80.00
47114;DHT22;32867;51.556;6.832;2023-03-01T08:37:36;8.70;76.10
47114;DHT22;32867;51.556;6.832;2023-03-01T08:42:37;9.50;73.10
47114;DHT22;32867;51.556;6.832;2023-03-01T08:47:37;10.30;70.90
47114;DHT22;32867;51.556;6.832;2023-03-01T08:52:38;11.00;68.30
47114;DHT22;32867;51.556;6.832;2023-03-01T08:57:39;11.30;66.50
47114;DHT22;32867;51.556;6.832;2023-03-01T09:02:39;10.10;65.70
47114;DHT22;32867;51.556;6.832;2023-03-01T09:07:40;9.10;67.10
47114;DHT22;32867;51.556;6.832;2023-03-01T09:12:41;8.60;67.90
47114;DHT22;32867;51.556;6.832;2023-03-01T09:17:41;8.30;69.00
47114;DHT22;32867;51.556;6.832;2023-03-01T09:22:42;8.20;68.90
47114;DHT22;32867;51.556;6.832;2023-03-01T09:27:44;8.20;69.40
47114;DHT22;32867;51.556;6.832;2023-03-01T09:32:44;8.40;68.80
47114;DHT22;32867;51.556;6.832;2023-03-01T09:37:45;8.70;68.80
47114;DHT22;32867;51.556;6.832;2023-03-01T09:42:51;9.40;68.80
47114;DHT22;32867;51.556;6.832;2023-03-01T09:47:53;10.20;64.70
47114;DHT22;32867;51.556;6.832;2023-03-01T09:53:10;12.40;62.20
47114;DHT22;32867;51.556;6.832;2023-03-01T10:04:13;16.10;52.30
47114;DHT22;32867;51.556;6.832;2023-03-01T10:09:19;18.00;51.10
47114;DHT22;32867;51.556;6.832;2023-03-01T10:19:43;19.50;49.20
47114;DHT22;32867;51.556;6.832;2023-03-01T10:24:44;19.60;46.50
47114;DHT22;32867;51.556;6.832;2023-03-01T10:30:21;20.80;47.00
47114;DHT22;32867;51.556;6.832;2023-03-01T10:35:25;21.80;43.80
47114;DHT22;32867;51.556;6.832;2023-03-01T10:40:26;21.60;44.10
47114;DHT22;32867;51.556;6.832;2023-03-01T10:50:31;23.20;43.10
47114;DHT22;32867;51.556;6.832;2023-03-01T10:55:35;22.60;43.40
47114;DHT22;32867;51.556;6.832;2023-03-01T11:00:47;21.70;42.50
47114;DHT22;32867;51.556;6.832;2023-03-01T11:05:55;22.20;42.40
47114;DHT22;32867;51.556;6.832;2023-03-01T11:11:18;23.30;41.00
47114;DHT22;32867;51.556;6.832;2023-03-01T11:16:28;24.30;40.60
47114;DHT22;32867;51.556;6.832;2023-03-01T11:21:32;24.90;40.40
47114;DHT22;32867;51.556;6.832;2023-03-01T11:26:37;25.20;40.10
47114;DHT22;32867;51.556;6.832;2023-03-01T11:31:39;25.30;40.70
47114;DHT22;32867;51.556;6.832;2023-03-01T11:36:45;25.00;38.90
47114;DHT22;32867;51.556;6.832;2023-03-01T11:41:52;25.40;39.60
47114;DHT22;32867;51.556;6.832;2023-03-01T12:08:36;27.50;37.40
47114;DHT22;32867;51.556;6.832;2023-03-01T12:19:28;26.60;38.50
47114;DHT22;32867;51.556;6.832;2023-03-01T12:29:46;28.30;39.00
47114;DHT22;32867;51.556;6.832;2023-03-01T12:50:48;28.20;36.60
47114;DHT22;32867;51.556;6.832;2023-03-01T12:55:51;28.50;36.90
47114;DHT22;32867;51.556;6.832;2023-03-01T13:06:18;29.10;36.40
47114;DHT22;32867;51.556;6.832;2023-03-01T13:11:22;28.30;37.40
47114;DHT22;32867;51.556;6.832;2023-03-01T13:16:42;28.30;37.50
47114;DHT22;32867;51.556;6.832;2023-03-01T13:21:46;28.10;37.10
47114;DHT22;32867;51.556;6.832;2023-03-01T13:32:25;27.90;36.30
47114;DHT22;32867;51.556;6.832;2023-03-01T13:37:33;27.80;36.90
47114;DHT22;32867;51.556;6.832;2023-03-01T13:42:38;27.80;36.60
47114;DHT22;32867;51.556;6.832;2023-03-01T13:47:41;27.80;37.00
47114;DHT22;32867;51.556;6.832;2023-03-01T13:52:53;28.20;36.90
47114;DHT22;32867;51.556;6.832;2023-03-01T13:58:00;27.80;36.60
47114;DHT22;32867;51.556;6.832;2023-03-01T14:03:18;27.40;36.80
47114;DHT22;32867;51.556;6.832;2023-03-01T14:08:22;26.90;36.90
47114;DHT22;32867;51.556;6.832;2023-03-01T14:13:32;26.40;37.30
47114;DHT22;32867;51.556;6.832;2023-03-01T14:18:48;25.60;36.80
47114;DHT22;32867;51.556;6.832;2023-03-01T14:23:52;25.70;37.40
47114;DHT22;32867;51.556;6.832;2023-03-01T14:28:53;25.30;37.60
47114;DHT22;32867;51.556;6.832;2023-03-01T14:33:56;24.50;38.00
47114;DHT22;32867;51.556;6.832;2023-03-01T14:38:57;24.10;37.90
47114;DHT22;32867;51.556;6.832;2023-03-01T14:44:11;23.60;38.00
47114;DHT22;32867;51.556;6.832;2023-03-01T14:49:17;23.10;38.60
47114;DHT22;32867;51.556;6.832;2023-03-01T14:54:28;22.40;39.40
47114;DHT22;32867;51.556;6.832;2023-03-01T14:59:33;22.10;39.50
47114;DHT22;32867;51.556;6.832;2023-03-01T15:04:34;21.20;40.10
47114;DHT22;32867;51.556;6.832;2023-03-01T15:09:36;20.20;40.70
47114;DHT22;32867;51.556;6.832;2023-03-01T15:14:42;19.30;41.30
47114;DHT22;32867;51.556;6.832;2023-03-01T15:19:45;18.80;42.40
47114;DHT22;32867;51.556;6.832;2023-03-01T15:24:48;18.20;42.60
47114;DHT22;32867;51.556;6.832;2023-03-01T15:29:56;17.90;42.90
47114;DHT22;32867;51.556;6.832;2023-03-01T15:35:32;17.30;43.60
47114;DHT22;32867;51.556;6.832;2023-03-01T15:40:25;17.00;43.90
47114;DHT22;32867;51.556;6.832;2023-03-01T15:45:33;16.80;44.40
47114;DHT22;32867;51.556;6.832;2023-03-01T15:50:39;16.40;45.00
47114;DHT22;32867;51.556;6.832;2023-03-01T15:55:41;16.00;45.20
47114;DHT22;32867;51.556;6.832;2023-03-01T16:00:42;16.10;45.50
47114;DHT22;32867;51.556;6.832;2023-03-01T16:05:43;15.60;45.90
47114;DHT22;32867;51.556;6.832;2023-03-01T16:10:44;15.60;46.60
47114;DHT22;32867;51.556;6.832;2023-03-01T16:15:45;15.30;46.70
47114;DHT22;32867;51.556;6.832;2023-03-01T16:20:46;15.10;47.50
47114;DHT22;32867;51.556;6.832;2023-03-01T16:25:47;15.10;47.70
47114;DHT22;32867;51.556;6.832;2023-03-01T16:30:48;15.00;47.40
47114;DHT22;32867;51.556;6.832;2023-03-01T16:35:49;14.80;47.40
47114;DHT22;32867;51.556;6.832;2023-03-01T16:40:51;14.40;47.70
47114;DHT22;32867;51.556;6.832;2023-03-01T16:45:52;14.20;48.20
47114;DHT22;32867;51.556;6.832;2023-03-01T16:50:59;14.10;48.50
47114;DHT22;32867;51.556;6.832;2023-03-01T16:56:00;13.80;48.90
47114;DHT22;32867;51.556;6.832;2023-03-01T17:01:07;13.50;49.20
47114;DHT22;32867;51.556;6.832;2023-03-01T17:06:11;13.10;49.40
47114;DHT22;32867;51.556;6.832;2023-03-01T17:11:15;12.60;49.90
47114;DHT22;32867;51.556;6.832;2023-03-01T17:16:17;12.40;50.70
47114;DHT22;32867;51.556;6.832;2023-03-01T17:21:19;12.00;50.70
47114;DHT22;32867;51.556;6.832;2023-03-01T17:26:20;11.70;51.60
47114;DHT22;32867;51.556;6.832;2023-03-01T17:31:21;11.50;51.70
47114;DHT22;32867;51.556;6.832;2023-03-01T17:36:22;11.30;52.00
47114;DHT22;32867;51.556;6.832;2023-03-01T17:41:23;11.10;52.40
47114;DHT22;32867;51.556;6.832;2023-03-01T17:46:24;10.80;52.90
47114;DHT22;32867;51.556;6.832;2023-03-01T17:51:26;10.60;53.40
47114;DHT22;32867;51.556;6.832;2023-03-01T17:56:27;10.50;53.40
47114;DHT22;32867;51.556;6.832;2023-03-01T18:01:27;10.40;53.60
47114;DHT22;32867;51.556;6.832;2023-03-01T18:06:28;10.30;54.20
47114;DHT22;32867;51.556;6.832;2023-03-01T18:11:29;10.10;54.30
47114;DHT22;32867;51.556;6.832;2023-03-01T18:16:32;9.90;54.50
47114;DHT22;32867;51.556;6.832;2023-03-01T18:21:33;9.80;54.80
47114;DHT22;32867;51.556;6.832;2023-03-01T18:26:34;9.70;54.80
47114;DHT22;32867;51.556;6.832;2023-03-01T18:31:35;9.50;55.10
47114;DHT22;32867;51.556;6.832;2023-03-01T18:36:35;9.30;55.60
47114;DHT22;32867;51.556;6.832;2023-03-01T18:41:37;9.20;55.80
47114;DHT22;32867;51.556;6.832;2023-03-01T18:46:38;9.10;55.80
47114;DHT22;32867;51.556;6.832;2023-03-01T18:51:40;9.10;56.20
47114;DHT22;32867;51.556;6.832;2023-03-01T18:56:41;8.90;56.50
47114;DHT22;32867;51.556;6.832;2023-03-01T19:01:41;8.90;56.50
47114;DHT22;32867;51.556;6.832;2023-03-01T19:06:42;8.80;56.70
47114;DHT22;32867;51.556;6.832;2023-03-01T19:11:43;8.70;57.20
47114;DHT22;32867;51.556;6.832;2023-03-01T19:16:43;8.70;57.40
47114;DHT22;32867;51.556;6.832;2023-03-01T19:21:44;8.60;57.30
47114;DHT22;32867;51.556;6.832;2023-03-01T19:26:45;8.50;58.10
47114;DHT22;32867;51.556;6.832;2023-03-01T19:31:45;8.30;58.40
47114;DHT22;32867;51.556;6.832;2023-03-01T19:36:46;8.30;58.50
47114;DHT22;32867;51.556;6.832;2023-03-01T19:41:47;8.20;58.70
47114;DHT22;32867;51.556;6.832;2023-03-01T19:46:48;8.20;58.60
47114;DHT22;32867;51.556;6.832;2023-03-01T19:51:50;8.10;58.90
47114;DHT22;32867;51.556;6.832;2023-03-01T19:56:51;7.90;58.70
47114;DHT22;32867;51.556;6.832;2023-03-01T20:01:52;7.80;59.20
47114;DHT22;32867;51.556;6.832;2023-03-01T20:06:53;7.60;60.00
47114;DHT22;32867;51.556;6.832;2023-03-01T20:11:53;7.60;60.20
47114;DHT22;32867;51.556;6.832;2023-03-01T20:16:54;7.40;60.40
47114;DHT22;32867;51.556;6.832;2023-03-01T20:21:55;7.40;60.80
47114;DHT22;32867;51.556;6.832;2023-03-01T20:26:55;7.30;61.20
47114;DHT22;32867;51.556;6.832;2023-03-01T20:31:56;7.20;61.50
47114;DHT22;32867;51.556;6.832;2023-03-01T20:36:57;7.10;61.60
47114;DHT22;32867;51.556;6.832;2023-03-01T20:41:57;7.00;62.00
47114;DHT22;32867;51.556;6.832;2023-03-01T20:46:58;6.90;62.40
47114;DHT22;32867;51.556;6.832;2023-03-01T20:51:59;6.90;62.70
47114;DHT22;32867;51.556;6.832;2023-03-01T20:57:00;6.80;62.70
47114;DHT22;32867;51.556;6.832;2023-03-01T21:02:00;6.70;63.30
47114;DHT22;32867;51.556;6.832;2023-03-01T21:07:01;6.60;63.40
47114;DHT22;32867;51.556;6.832;2023-03-01T21:12:02;6.60;63.70
47114;DHT22;32867;51.556;6.832;2023-03-01T21:17:03;6.40;64.00
47114;DHT22;32867;51.556;6.832;2023-03-01T21:22:04;6.50;64.20
47114;DHT22;32867;51.556;6.832;2023-03-01T21:27:05;6.40;64.30
47114;DHT22;32867;51.556;6.832;2023-03-01T21:32:10;6.40;64.60
47114;DHT22;32867;51.556;6.832;2023-03-01T21:37:11;6.40;64.40
47114;DHT22;32867;51.556;6.832;2023-03-01T21:42:12;6.50;64.60
47114;DHT22;32867;51.556;6.832;2023-03-01T21:47:12;6.40;64.40
47114;DHT22;32867;51.556;6.832;2023-03-01T21:52:13;6.30;64.80
47114;DHT22;32867;51.556;6.832;2023-03-01T21:57:16;6.20;65.30
47114;DHT22;32867;51.556;6.832;2023-03-01T22:02:17;6.20;65.10
47114;DHT22;32867;51.556;6.832;2023-03-01T22:07:17;6.10;65.40
47114;DHT22;32867;51.556;6.832;2023-03-01T22:12:19;6.00;65.60
47114;DHT22;32867;51.556;6.832;2023-03-01T22:17:19;6.00;66.10
47114;DHT22;32867;51.556;6.832;2023-03-01T22:22:20;6.10;65.90
47114;DHT22;32867;51.556;6.832;2023-03-01T22:27:21;6.00;66.00
47114;DHT22;32867;51.556;6.832;2023-03-01T22:32:21;5.90;66.30
47114;DHT22;32867;51.556;6.832;2023-03-01T22:37:22;5.90;66.40
47114;DHT22;32867;51.556;6.832;2023-03-01T22:42:23;5.70;66.70
47114;DHT22;32867;51.556;6.832;2023-03-01T22:47:23;5.70;66.90
47114;DHT22;32867;51.556;6.832;2023-03-01T22:52:24;5.70;67.00
47114;DHT22;32867;51.556;6.832;2023-03-01T22:57:25;5.60;67.00
47114;DHT22;32867;51.556;6.832;2023-03-01T23:02:25;5.60;67.90
47114;DHT22;32867;51.556;6.832;2023-03-01T23:07:26;5.60;67.40
47114;DHT22;32867;51.556;6.832;2023-03-01T23:12:30;5.60;67.40
47114;DHT22;32867;51.556;6.832;2023-03-01T23:17:31;5.50;67.50
47114;DHT22;32867;51.556;6.832;2023-03-01T23:22:32;5.50;67.50
47114;DHT22;32867;51.556;6.832;2023-03-01T23:27:35;5.40;67.90
47114;DHT22;32867;51.556;6.832;2023-03-01T23:32:36;5.50;68.00
47114;DHT22;32867;51.556;6.832;2023-03-01T23:37:39;5.40;68.00
47114;DHT22;32867;51.556;6.832;2023-03-01T23:42:40;5.30;68.20
47114;DHT22;32867;51.556;6.832;2023-03-01T23:47:41;5.30;68.10
47114;DHT22;32867;51.556;6.832;2023-03-01T23:52:43;5.20;68.60
47114;DHT22;32867;51.556;6.832;2023-03-01T23:57:44;5.20;68.40
